createdAt,value
2023-04-15T00:00:44.638Z,97355.60
2023-04-15T00:03:42.539Z,97353.60
2023-04-15T00:06:40.910Z,97355.80
2023-04-15T00:09:38.678Z,97359.40
2023-04-15T00:12:36.098Z,97367.40
2023-04-15T00:15:34.092Z,97363.80
2023-04-15T00:18:31.747Z,97365.80
2023-04-15T00:21:29.753Z,97373.20
2023-04-15T00:24:27.197Z,97375.80
2023-04-15T00:27:25.131Z,97376.80
2023-04-15T00:30:22.585Z,97380.80
2023-04-15T00:33:20.299Z,97378.20
2023-04-15T00:36:17.769Z,97377.20
2023-04-15T00:39:16.850Z,97376.40
2023-04-15T00:42:14.323Z,97384.20
2023-04-15T00:45:12.082Z,97382.00
2023-04-15T00:48:10.549Z,97382.60
2023-04-15T00:51:09.775Z,97385.00
2023-04-15T00:54:09.323Z,97387.60
2023-04-15T00:57:06.732Z,97393.40
2023-04-15T01:00:06.304Z,97396.60
2023-04-15T01:03:03.909Z,97395.20
2023-04-15T01:06:04.010Z,97394.60
2023-04-15T01:09:02.048Z,97397.40
2023-04-15T01:12:00.069Z,97399.80
2023-04-15T01:14:57.508Z,97399.60
2023-04-15T01:17:55.334Z,97397.80
2023-04-15T01:20:53.194Z,97405.60
2023-04-15T01:23:50.586Z,97404.20
2023-04-15T01:26:49.339Z,97409.80
2023-04-15T01:29:47.348Z,97412.80
2023-04-15T01:32:45.129Z,97421.00
2023-04-15T01:35:44.275Z,97420.60
2023-04-15T01:38:41.997Z,97425.60
2023-04-15T01:41:39.501Z,97425.60
2023-04-15T01:44:37.765Z,97429.20
2023-04-15T01:47:35.437Z,97427.80
2023-04-15T01:50:32.933Z,97429.20
2023-04-15T01:53:30.747Z,97431.60
2023-04-15T01:56:28.150Z,97429.40
2023-04-15T01:59:26.199Z,97435.20
2023-04-15T02:02:23.738Z,97434.40
2023-04-15T02:05:21.492Z,97433.60
2023-04-15T02:08:19.052Z,97434.00
2023-04-15T02:11:16.864Z,97433.00
2023-04-15T02:14:14.287Z,97434.60
2023-04-15T02:17:12.014Z,97434.40
2023-04-15T02:20:10.988Z,97436.60
2023-04-15T02:23:08.766Z,97439.60
2023-04-15T02:26:07.731Z,97447.20
2023-04-15T02:29:05.228Z,97446.80
2023-04-15T02:32:02.811Z,97444.80
2023-04-15T02:35:00.262Z,97450.60
2023-04-15T02:37:57.901Z,97453.80
2023-04-15T02:40:55.559Z,97456.60
2023-04-15T02:43:53.313Z,97461.40
2023-04-15T02:46:53.032Z,97468.00
2023-04-15T02:49:50.444Z,97464.60
2023-04-15T02:52:48.264Z,97465.20
2023-04-15T02:55:45.735Z,97468.20
2023-04-15T02:58:43.484Z,97468.80
2023-04-15T03:01:40.931Z,97471.60
2023-04-15T03:04:38.579Z,97467.20
2023-04-15T03:07:36.068Z,97464.80
2023-04-15T03:10:33.730Z,97465.20
2023-04-15T03:13:31.537Z,97464.40
2023-04-15T03:16:28.944Z,97475.20
2023-04-15T03:19:26.620Z,97474.40
2023-04-15T03:22:24.031Z,97474.60
2023-04-15T03:25:21.835Z,97474.80
2023-04-15T03:28:19.247Z,97474.00
2023-04-15T03:31:17.195Z,97475.40
2023-04-15T03:34:14.700Z,97475.80
2023-04-15T03:37:12.309Z,97483.80
2023-04-15T03:40:10.033Z,97477.60
2023-04-15T03:43:07.477Z,97479.40
2023-04-15T03:46:05.093Z,97481.80
2023-04-15T03:49:02.724Z,97479.80
2023-04-15T03:52:00.749Z,97480.20
2023-04-15T03:54:58.200Z,97485.40
2023-04-15T03:57:55.957Z,97489.20
2023-04-15T04:00:53.460Z,97491.80
2023-04-15T04:03:51.508Z,97484.00
2023-04-15T04:06:49.470Z,97490.80
2023-04-15T04:09:47.414Z,97493.40
2023-04-15T04:12:45.210Z,97493.00
2023-04-15T04:15:42.699Z,97498.80
2023-04-15T04:18:40.416Z,97503.80
2023-04-15T04:21:39.763Z,97508.80
2023-04-15T04:24:37.520Z,97516.20
2023-04-15T04:27:35.019Z,97512.40
2023-04-15T04:30:33.065Z,97510.20
2023-04-15T04:33:30.900Z,97521.60
2023-04-15T04:36:28.358Z,97520.40
2023-04-15T04:39:26.536Z,97525.60
2023-04-15T04:42:23.984Z,97527.40
2023-04-15T04:45:21.757Z,97531.00
2023-04-15T04:48:20.004Z,97532.00
2023-04-15T04:51:17.679Z,97536.80
2023-04-15T04:54:15.126Z,97536.80
2023-04-15T04:57:13.947Z,97543.40
2023-04-15T05:00:11.452Z,97545.80
2023-04-15T05:03:09.500Z,97552.60
2023-04-15T05:06:08.990Z,97546.40
2023-04-15T05:09:06.788Z,97547.80
2023-04-15T05:12:04.415Z,97548.20
2023-04-15T05:15:01.818Z,97553.40
2023-04-15T05:17:59.646Z,97550.80
2023-04-15T05:20:57.155Z,97544.20
2023-04-15T05:23:54.723Z,97551.20
2023-04-15T05:26:52.594Z,97551.20
2023-04-15T05:29:50.064Z,97553.00
2023-04-15T05:32:47.814Z,97555.20
2023-04-15T05:35:45.229Z,97557.80
2023-04-15T05:38:44.872Z,97562.20
2023-04-15T05:41:42.270Z,97567.00
2023-04-15T05:44:40.022Z,97570.20
2023-04-15T05:47:37.933Z,97572.00
2023-04-15T05:50:35.968Z,97571.20
2023-04-15T05:53:33.614Z,97570.80
2023-04-15T05:56:31.794Z,97579.20
2023-04-15T05:59:29.942Z,97583.00
2023-04-15T06:02:28.060Z,97579.40
2023-04-15T06:05:25.801Z,97584.20
2023-04-15T06:08:23.558Z,97578.60
2023-04-15T06:11:21.241Z,97587.40
2023-04-15T06:14:18.846Z,97583.80
2023-04-15T06:17:18.541Z,97591.40
2023-04-15T06:20:16.473Z,97593.40
2023-04-15T06:23:13.882Z,97592.60
2023-04-15T06:26:11.527Z,97597.40
2023-04-15T06:29:09.654Z,97599.60
2023-04-15T06:32:07.134Z,97599.60
2023-04-15T06:35:04.913Z,97601.00
2023-04-15T06:38:02.315Z,97603.00
2023-04-15T06:40:59.980Z,97606.00
2023-04-15T06:43:57.439Z,97607.00
2023-04-15T06:46:55.243Z,97607.00
2023-04-15T06:49:53.024Z,97612.60
2023-04-15T06:52:50.906Z,97608.60
2023-04-15T06:55:48.644Z,97615.60
2023-04-15T06:58:46.433Z,97612.40
2023-04-15T07:01:44.049Z,97619.00
2023-04-15T07:04:41.512Z,97620.00
2023-04-15T07:07:39.138Z,97618.40
2023-04-15T07:10:36.880Z,97620.80
2023-04-15T07:13:34.333Z,97622.60
2023-04-15T07:16:32.076Z,97623.00
2023-04-15T07:19:29.518Z,97626.80
2023-04-15T07:22:28.102Z,97631.40
2023-04-15T07:25:25.828Z,97635.20
2023-04-15T07:28:23.587Z,97640.80
2023-04-15T07:31:22.156Z,97645.80
2023-04-15T07:34:19.636Z,97647.60
2023-04-15T07:37:18.004Z,97648.00
2023-04-15T07:40:16.339Z,97647.20
2023-04-15T07:43:14.123Z,97653.80
2023-04-15T07:46:11.816Z,97651.20
2023-04-15T07:49:09.354Z,97654.80
2023-04-15T07:52:06.982Z,97659.00
2023-04-15T07:55:04.839Z,97657.80
2023-04-15T07:58:02.427Z,97658.40
2023-04-15T08:00:59.823Z,97664.00
2023-04-15T08:03:58.245Z,97665.40
2023-04-15T08:06:56.198Z,97669.20
2023-04-15T08:09:53.616Z,97673.40
2023-04-15T08:12:55.741Z,97677.20
2023-04-15T08:15:53.258Z,97688.80
2023-04-15T08:18:50.882Z,97686.40
2023-04-15T08:21:48.334Z,97683.20
2023-04-15T08:24:45.905Z,97689.00
2023-04-15T08:27:44.288Z,97690.20
2023-04-15T08:30:41.860Z,97690.00
2023-04-15T08:33:40.173Z,97690.80
2023-04-15T08:36:37.577Z,97692.80
2023-04-15T08:39:35.217Z,97691.80
2023-04-15T08:42:32.660Z,97693.40
2023-04-15T08:45:30.288Z,97700.00
2023-04-15T08:48:28.108Z,97703.80
2023-04-15T08:51:25.495Z,97710.80
2023-04-15T08:54:23.121Z,97710.80
2023-04-15T08:57:20.565Z,97712.20
2023-04-15T09:00:19.301Z,97711.40
2023-04-15T09:03:17.929Z,97711.60
2023-04-15T09:06:15.400Z,97715.00
2023-04-15T09:09:13.287Z,97715.00
2023-04-15T09:12:11.402Z,97722.40
2023-04-15T09:15:09.201Z,97724.40
2023-04-15T09:18:07.053Z,97720.80
2023-04-15T09:21:05.818Z,97723.40
2023-04-15T09:24:04.386Z,97727.40
2023-04-15T09:27:02.568Z,97730.00
2023-04-15T09:30:00.205Z,97731.60
2023-04-15T09:32:57.638Z,97734.80
2023-04-15T09:35:55.233Z,97740.20
2023-04-15T09:38:53.136Z,97747.60
2023-04-15T09:41:51.675Z,97745.40
2023-04-15T09:44:49.350Z,97753.60
2023-04-15T09:47:46.885Z,97745.40
2023-04-15T09:50:44.685Z,97747.40
2023-04-15T09:53:42.140Z,97750.00
2023-04-15T09:56:42.397Z,97750.00
2023-04-15T09:59:39.907Z,97749.20
2023-04-15T10:02:37.789Z,97755.00
2023-04-15T10:05:35.996Z,97757.00
2023-04-15T10:08:34.995Z,97757.60
2023-04-15T10:11:33.255Z,97763.00
2023-04-15T10:14:30.821Z,97770.80
2023-04-15T10:17:31.134Z,97770.00
2023-04-15T10:20:29.462Z,97773.40
2023-04-15T10:23:27.529Z,97774.00
2023-04-15T10:26:25.266Z,97772.40
2023-04-15T10:29:22.660Z,97778.80
2023-04-15T10:32:21.030Z,97781.00
2023-04-15T10:35:18.806Z,97785.20
2023-04-15T10:38:16.545Z,97789.00
2023-04-15T10:41:14.200Z,97793.60
2023-04-15T10:44:11.837Z,97787.20
2023-04-15T10:47:10.860Z,97791.60
2023-04-15T10:50:09.165Z,97792.20
2023-04-15T10:53:06.606Z,97791.80
2023-04-15T10:56:06.335Z,97788.80
2023-04-15T10:59:03.723Z,97791.80
2023-04-15T11:02:01.414Z,97796.60
2023-04-15T11:04:58.876Z,97801.60
2023-04-15T11:07:56.508Z,97803.80
2023-04-15T11:10:57.080Z,97804.40
2023-04-15T11:13:54.574Z,97804.00
2023-04-15T11:16:52.221Z,97807.60
2023-04-15T11:19:49.643Z,97809.00
2023-04-15T11:22:47.559Z,97813.40
2023-04-15T11:25:45.015Z,97812.40
2023-04-15T11:28:43.325Z,97815.80
2023-04-15T11:31:41.193Z,97822.20
2023-04-15T11:34:38.678Z,97812.60
2023-04-15T11:37:36.270Z,97815.00
2023-04-15T11:40:35.537Z,97819.00
2023-04-15T11:43:34.439Z,97824.80
2023-04-15T11:46:32.450Z,97823.80
2023-04-15T11:49:30.040Z,97825.80
2023-04-15T11:52:27.698Z,97830.00
2023-04-15T11:55:25.118Z,97830.40
2023-04-15T11:58:22.844Z,97835.00
2023-04-15T12:01:20.278Z,97833.20
2023-04-15T12:04:21.645Z,97839.80
2023-04-15T12:07:22.125Z,97838.40
2023-04-15T12:10:19.507Z,97840.40
2023-04-15T12:13:17.170Z,97846.20
2023-04-15T12:16:14.750Z,97843.20
2023-04-15T12:19:12.598Z,97847.20
2023-04-15T12:22:11.657Z,97845.40
2023-04-15T12:25:09.391Z,97850.00
2023-04-15T12:28:06.981Z,97845.40
2023-04-15T12:31:05.669Z,97851.60
2023-04-15T12:34:03.917Z,97856.80
2023-04-15T12:37:01.792Z,97854.60
2023-04-15T12:39:59.247Z,97863.60
2023-04-15T12:42:57.320Z,97869.00
2023-04-15T12:45:54.772Z,97873.20
2023-04-15T12:48:53.490Z,97871.60
2023-04-15T12:51:51.110Z,97871.20
2023-04-15T12:54:48.706Z,97875.60
2023-04-15T12:57:46.126Z,97875.00
2023-04-15T13:00:44.392Z,97876.60
2023-04-15T13:03:42.325Z,97880.40
2023-04-15T13:06:39.969Z,97883.00
2023-04-15T13:09:38.138Z,97888.00
2023-04-15T13:12:36.842Z,97888.00
2023-04-15T13:15:34.571Z,97889.80
2023-04-15T13:18:32.150Z,97890.00
2023-04-15T13:21:30.039Z,97893.80
2023-04-15T13:24:27.715Z,97899.60
2023-04-15T13:27:25.152Z,97899.20
2023-04-15T13:30:23.492Z,97900.20
2023-04-15T13:33:20.958Z,97902.20
2023-04-15T13:36:18.652Z,97897.80
2023-04-15T13:39:16.119Z,97897.00
2023-04-15T13:42:13.740Z,97902.20
2023-04-15T13:45:11.471Z,97904.40
2023-04-15T13:48:08.904Z,97904.00
2023-04-15T13:51:06.875Z,97906.00
2023-04-15T13:54:04.822Z,97900.60
2023-04-15T13:57:03.060Z,97904.20
2023-04-15T14:00:00.600Z,97908.20
2023-04-15T14:02:58.363Z,97908.20
2023-04-15T14:05:57.391Z,97909.60
2023-04-15T14:08:55.017Z,97911.20
2023-04-15T14:11:52.794Z,97916.60
2023-04-15T14:14:50.283Z,97918.80
2023-04-15T14:17:48.189Z,97921.80
2023-04-15T14:20:45.850Z,97925.60
2023-04-15T14:23:43.593Z,97929.20
2023-04-15T14:26:41.781Z,97931.20
2023-04-15T14:29:39.204Z,97932.40
2023-04-15T14:32:37.058Z,97933.80
2023-04-15T14:35:34.830Z,97938.00
2023-04-15T14:38:34.261Z,97940.60
2023-04-15T14:41:31.901Z,97945.60
2023-04-15T14:47:27.201Z,97955.40
2023-04-15T14:50:25.378Z,97958.60
2023-04-15T14:53:23.077Z,97964.60
2023-04-15T14:56:20.796Z,97969.40
2023-04-15T14:59:18.551Z,97974.80
2023-04-15T15:02:37.360Z,97974.40
2023-04-15T15:05:36.548Z,97976.20
2023-04-15T15:08:34.791Z,97978.80
2023-04-15T15:11:32.250Z,97985.40
2023-04-15T15:14:31.511Z,97988.20
2023-04-15T15:17:29.390Z,97997.80
2023-04-15T15:20:27.245Z,98001.80
2023-04-15T15:23:25.125Z,98005.80
2023-04-15T15:26:22.553Z,98008.60
2023-04-15T15:29:20.686Z,98004.40
2023-04-15T15:32:18.237Z,98009.20
2023-04-15T15:35:16.670Z,98009.20
2023-04-15T15:38:14.467Z,98014.20
2023-04-15T15:41:11.965Z,98017.40
2023-04-15T15:44:09.680Z,98021.20
2023-04-15T15:47:07.426Z,98023.60
2023-04-15T15:50:06.233Z,98027.00
2023-04-15T15:53:04.205Z,98030.40
2023-04-15T15:56:04.123Z,98031.80
2023-04-15T15:59:02.323Z,98034.40
2023-04-15T16:02:00.002Z,98035.40
2023-04-15T16:04:57.880Z,98034.40
2023-04-15T16:07:55.613Z,98037.40
2023-04-15T16:10:53.254Z,98047.80
2023-04-15T16:13:50.666Z,98045.40
2023-04-15T16:16:48.660Z,98050.00
2023-04-15T16:19:58.187Z,98054.20
2023-04-15T16:22:58.283Z,98052.20
2023-04-15T16:25:58.122Z,98055.60
2023-04-15T16:28:55.937Z,98054.60
2023-04-15T16:31:53.993Z,98053.60
2023-04-15T16:34:52.778Z,98059.00
2023-04-15T16:37:50.971Z,98062.80
2023-04-15T16:40:48.862Z,98064.80
2023-04-15T16:43:47.215Z,98069.00
2023-04-15T16:46:44.930Z,98074.00
2023-04-15T16:49:42.754Z,98070.80
2023-04-15T16:52:41.989Z,98076.00
2023-04-15T16:55:39.869Z,98087.20
2023-04-15T16:58:37.930Z,98094.20
2023-04-15T17:01:37.596Z,98088.80
2023-04-15T17:04:36.524Z,98098.60
2023-04-15T17:07:34.827Z,98102.60
2023-04-15T17:10:32.281Z,98103.20
2023-04-15T17:13:31.383Z,98111.20
2023-04-15T17:16:30.017Z,98112.80
2023-04-15T17:19:29.275Z,98117.60
2023-04-15T17:22:27.268Z,98117.60
2023-04-15T17:25:24.808Z,98122.60
2023-04-15T17:28:24.043Z,98125.00
2023-04-15T17:31:21.593Z,98124.40
2023-04-15T17:34:19.385Z,98130.00
2023-04-15T17:37:17.076Z,98130.40
2023-04-15T17:40:16.648Z,98137.60
2023-04-15T17:43:15.081Z,98139.80
2023-04-15T17:46:14.012Z,98147.60
2023-04-15T17:49:11.803Z,98151.00
2023-04-15T17:52:09.826Z,98152.00
2023-04-15T17:55:08.023Z,98156.80
2023-04-15T17:58:06.590Z,98165.40
2023-04-15T18:01:05.385Z,98174.40
2023-04-15T18:04:08.637Z,98177.20
2023-04-15T18:07:06.970Z,98184.00
2023-04-15T18:10:05.448Z,98186.60
2023-04-15T18:13:04.090Z,98193.20
2023-04-15T18:16:02.196Z,98199.40
2023-04-15T18:19:00.074Z,98204.80
2023-04-15T18:21:58.721Z,98208.80
2023-04-15T18:24:59.804Z,98210.20
2023-04-15T18:27:57.781Z,98211.60
2023-04-15T18:30:58.093Z,98216.00
2023-04-15T18:33:56.678Z,98223.40
2023-04-15T18:36:55.068Z,98234.40
2023-04-15T18:39:53.046Z,98232.00
2023-04-15T18:42:50.793Z,98229.00
2023-04-15T18:45:49.095Z,98240.80
2023-04-15T18:48:47.326Z,98246.00
2023-04-15T18:51:46.576Z,98249.40
2023-04-15T18:54:45.265Z,98257.40
2023-04-15T18:57:45.827Z,98257.80
2023-04-15T19:00:45.169Z,98262.00
2023-04-15T19:03:43.649Z,98266.60
2023-04-15T19:06:43.194Z,98269.00
2023-04-15T19:09:41.196Z,98276.20
2023-04-15T19:12:41.133Z,98274.00
2023-04-15T19:15:39.667Z,98274.80
2023-04-15T19:18:39.486Z,98281.20
2023-04-15T19:21:42.815Z,98280.80
2023-04-15T19:24:41.795Z,98284.40
2023-04-15T19:27:41.524Z,98284.00
2023-04-15T19:30:40.780Z,98287.40
2023-04-15T19:33:38.660Z,98292.60
2023-04-15T19:36:36.942Z,98291.80
2023-04-15T19:39:35.738Z,98291.40
2023-04-15T19:42:34.724Z,98294.60
2023-04-15T19:45:33.624Z,98296.60
2023-04-15T19:48:32.823Z,98296.60
2023-04-15T19:51:33.122Z,98303.20
2023-04-15T19:54:32.148Z,98307.20
2023-04-15T19:57:29.657Z,98307.80
2023-04-15T20:00:29.445Z,98309.00
2023-04-15T20:03:29.276Z,98313.40
2023-04-15T20:06:28.654Z,98316.80
2023-04-15T20:09:26.874Z,98318.60
2023-04-15T20:12:51.563Z,98320.00
2023-04-15T20:15:46.378Z,98321.60
2023-04-15T20:18:44.367Z,98330.60
2023-04-15T20:21:43.587Z,98326.40
2023-04-15T20:24:42.592Z,98329.40
2023-04-15T20:27:40.608Z,98337.40
2023-04-15T20:30:43.450Z,98336.60
2023-04-15T20:33:41.629Z,98336.40
2023-04-15T20:36:40.254Z,98338.80
2023-04-15T20:39:38.608Z,98339.40
2023-04-15T20:42:37.007Z,98342.40
2023-04-15T20:45:35.668Z,98345.40
2023-04-15T20:48:33.231Z,98345.80
2023-04-15T20:51:39.020Z,98349.00
2023-04-15T20:54:36.976Z,98350.80
2023-04-15T20:57:34.844Z,98359.20
2023-04-15T21:00:33.638Z,98360.00
2023-04-15T21:03:31.278Z,98355.40
2023-04-15T21:06:29.170Z,98357.80
2023-04-15T21:09:26.583Z,98361.40
2023-04-15T21:12:24.699Z,98365.40
2023-04-15T21:15:22.190Z,98369.80
2023-04-15T21:18:20.240Z,98372.80
2023-04-15T21:21:18.849Z,98379.00
2023-04-15T21:24:16.349Z,98381.00
2023-04-15T21:27:14.034Z,98381.20
2023-04-15T21:30:11.436Z,98387.60
2023-04-15T21:33:09.139Z,98388.40
2023-04-15T21:36:06.746Z,98392.20
2023-04-15T21:39:04.465Z,98396.00
2023-04-15T21:42:03.212Z,98397.00
2023-04-15T21:45:00.720Z,98400.00
2023-04-15T21:48:07.382Z,98401.60
2023-04-15T21:51:06.179Z,98408.40
2023-04-15T21:54:03.787Z,98405.00
2023-04-15T21:57:02.311Z,98404.80
2023-04-15T22:00:00.007Z,98408.00
2023-04-15T22:02:57.515Z,98408.40
2023-04-15T22:05:55.462Z,98407.00
2023-04-15T22:08:57.344Z,98411.20
2023-04-15T22:11:55.403Z,98413.40
2023-04-15T22:14:53.081Z,98419.40
2023-04-15T22:17:50.881Z,98421.20
2023-04-15T22:20:48.594Z,98422.00
2023-04-15T22:23:46.257Z,98426.60
2023-04-15T22:26:43.697Z,98432.20
2023-04-15T22:29:41.472Z,98439.00
2023-04-15T22:32:38.918Z,98443.60
2023-04-15T22:35:37.638Z,98443.40
2023-04-15T22:38:35.086Z,98443.60
2023-04-15T22:41:32.647Z,98445.60
2023-04-15T22:44:30.519Z,98450.80
2023-04-15T22:47:28.024Z,98453.20
2023-04-15T22:50:25.840Z,98453.80
2023-04-15T22:53:23.286Z,98454.40
2023-04-15T22:56:21.572Z,98462.60
2023-04-15T22:59:19.093Z,98464.80
2023-04-15T23:02:19.498Z,98466.00
2023-04-15T23:05:17.519Z,98468.20
2023-04-15T23:08:14.971Z,98473.20
2023-04-15T23:11:12.599Z,98475.80
2023-04-15T23:14:09.995Z,98474.80
2023-04-15T23:17:07.857Z,98476.00
2023-04-15T23:20:05.321Z,98475.40
2023-04-15T23:23:03.029Z,98479.40
2023-04-15T23:26:01.795Z,98483.40
2023-04-15T23:28:59.277Z,98485.60
2023-04-15T23:31:57.137Z,98486.00
2023-04-15T23:34:54.782Z,98475.40
2023-04-15T23:37:52.568Z,98485.00
2023-04-15T23:40:50.036Z,98494.00
2023-04-15T23:43:47.688Z,98492.00
2023-04-15T23:46:45.400Z,98498.60
2023-04-15T23:49:42.816Z,98500.20
2023-04-15T23:52:40.548Z,98499.80
2023-04-15T23:55:37.949Z,98500.60
2023-04-15T23:58:35.720Z,98499.80
